Time;durP1;ratioP1;P1;durP2;ratioP2;P2;SDS_P1;SDS_P2;PMS_P1;PMS_P2;Temp;Humidity;BMP_temperature;BMP_pressure;BME280_temperature;BME280_humidity;BME280_pressure;Samples;Min_cycle;Max_cycle;Signal;HPM_P1;HPM_P2
2022/09/01 00:01:46;;;;;;;2.50;2.20;;;24.40;47.10;25.40;101183.00;;;;5048460;28;20158;-40
2022/09/01 00:04:15;;;;;;;2.70;2.50;;;24.30;47.10;25.30;101184.00;;;;5048558;28;21026;-41
2022/09/01 00:06:41;;;;;;;2.53;2.33;;;24.30;47.10;25.30;101184.00;;;;5047772;28;20162;-38
2022/09/01 00:09:11;;;;;;;2.25;2.08;;;24.20;47.00;25.30;101182.00;;;;5048238;28;20263;-42
2022/09/01 00:11:37;;;;;;;2.63;2.10;;;24.20;47.20;25.30;101176.00;;;;5048417;28;20177;-39
2022/09/01 00:14:04;;;;;;;2.38;2.17;;;24.30;47.20;25.30;101183.00;;;;5048535;28;20178;-41
2022/09/01 00:16:30;;;;;;;2.95;2.20;;;24.30;47.20;25.20;101195.00;;;;5048467;28;20689;-39
2022/09/01 00:18:56;;;;;;;2.30;2.10;;;24.20;47.00;25.20;101188.00;;;;5048755;28;20205;-41
2022/09/01 00:21:26;;;;;;;2.43;2.23;;;24.10;47.00;25.20;101194.00;;;;5049204;28;20170;-41
2022/09/01 00:23:51;;;;;;;2.73;2.47;;;24.10;47.80;25.20;101195.00;;;;5048034;28;20261;-40
2022/09/01 00:26:17;;;;;;;2.38;2.17;;;24.10;47.20;25.10;101193.00;;;;5048332;28;20655;-38
2022/09/01 00:28:43;;;;;;;2.30;2.10;;;24.10;47.30;25.10;101197.00;;;;5047989;28;20178;-39
2022/09/01 00:31:09;;;;;;;2.10;2.00;;;24.10;47.30;25.10;101197.00;;;;5048224;28;20181;-39
2022/09/01 00:33:35;;;;;;;2.37;2.17;;;24.10;47.30;25.10;101205.00;;;;5047933;28;20170;-39
2022/09/01 00:36:02;;;;;;;3.13;2.27;;;24.00;47.20;25.00;101197.00;;;;5047850;28;20170;-38
2022/09/01 00:38:27;;;;;;;2.50;2.30;;;24.00;47.30;25.00;101199.00;;;;5047912;28;20288;-39
2022/09/01 00:40:53;;;;;;;2.30;2.10;;;24.00;47.30;25.10;101197.00;;;;5047823;28;20363;-40
2022/09/01 00:43:56;;;;;;;3.03;2.20;;;24.10;47.30;25.00;101194.00;;;;5048094;28;20243;-40
2022/09/01 00:46:27;;;;;;;3.27;2.27;;;24.00;47.20;25.00;101189.00;;;;5005609;28;20239;-39
2022/09/01 00:49:18;;;;;;;2.10;2.00;;;23.90;47.30;24.90;101185.00;;;;5040627;28;20186;-39
2022/09/01 00:51:49;;;;;;;2.40;2.20;;;24.00;47.40;24.90;101178.00;;;;5053408;28;20194;-40
2022/09/01 00:54:20;;;;;;;2.30;2.10;;;23.90;47.30;24.90;101187.00;;;;5047405;28;20537;-40
2022/09/01 00:56:46;;;;;;;2.73;2.10;;;24.00;47.40;24.90;101191.00;;;;5047308;28;20177;-40
2022/09/01 00:59:12;;;;;;;2.73;2.20;;;23.90;47.40;24.80;101188.00;;;;5046832;28;20655;-39
2022/09/01 01:01:38;;;;;;;2.43;2.23;;;23.80;47.40;24.80;101192.00;;;;5048081;28;20174;-38
2022/09/01 01:04:04;;;;;;;2.55;2.10;;;23.90;47.50;24.80;101181.00;;;;5048216;28;20245;-41
2022/09/01 01:06:31;;;;;;;2.20;2.00;;;23.90;47.50;24.80;101187.00;;;;5047786;28;20250;-39
2022/09/01 01:08:57;;;;;;;3.70;2.13;;;23.90;47.40;24.80;101180.00;;;;5046025;28;20221;-39
2022/09/01 01:11:28;;;;;;;2.77;2.30;;;23.90;47.30;24.80;101183.00;;;;5046410;28;20635;-39
2022/09/01 01:14:04;;;;;;;2.20;2.10;;;24.00;47.30;24.80;101178.00;;;;5047580;28;20186;-39
2022/09/01 01:16:30;;;;;;;2.30;2.10;;;24.00;47.20;24.80;101180.00;;;;5047688;28;20158;-39
2022/09/01 01:18:56;;;;;;;2.20;2.00;;;24.00;47.20;24.80;101180.00;;;;5046971;28;20259;-40
2022/09/01 01:24:33;;;;;;;2.30;2.10;;;24.00;47.30;24.80;101178.00;;;;5047386;28;20162;-39
2022/09/01 01:26:58;;;;;;;2.33;2.00;;;24.00;47.30;24.80;101179.00;;;;5050101;28;20174;-40
2022/09/01 01:29:32;;;;;;;2.40;2.20;;;24.00;47.30;24.80;101178.00;;;;5054724;28;20201;-39
2022/09/01 01:31:59;;;;;;;3.40;2.13;;;24.00;47.30;24.80;101180.00;;;;5047116;28;20178;-40
2022/09/01 01:34:25;;;;;;;2.10;2.00;;;24.00;47.30;24.80;101184.00;;;;5047128;28;20190;-41
2022/09/01 01:36:51;;;;;;;2.40;2.20;;;23.90;47.30;24.80;101184.00;;;;5046997;28;20166;-41
2022/09/01 01:39:24;;;;;;;2.40;2.20;;;24.00;47.30;24.80;101188.00;;;;5048213;28;20365;-40
2022/09/01 01:41:50;;;;;;;2.73;2.03;;;24.00;47.30;24.80;101191.00;;;;5048211;28;20670;-40
2022/09/01 01:44:18;;;;;;;3.20;2.13;;;24.00;47.30;24.80;101189.00;;;;5046289;28;20185;-40
2022/09/01 01:46:49;;;;;;;2.25;2.03;;;24.10;47.20;24.80;101194.00;;;;5047094;28;20568;-40
2022/09/01 01:49:18;;;;;;;2.33;2.13;;;24.10;47.30;24.90;101189.00;;;;5046400;28;20196;-39
2022/09/01 01:51:46;;;;;;;3.13;2.10;;;24.10;47.30;24.80;101192.00;;;;5046982;28;20261;-38
2022/09/01 01:54:12;;;;;;;2.72;2.25;;;24.10;47.30;24.90;101198.00;;;;5047098;28;20556;-39
2022/09/01 01:56:40;;;;;;;2.30;2.10;;;24.10;47.20;24.80;101191.00;;;;5047227;28;20177;-41
2022/09/01 01:59:08;;;;;;;2.10;2.00;;;24.10;47.20;24.90;101200.00;;;;5046685;28;20332;-40
2022/09/01 02:01:34;;;;;;;2.40;2.20;;;24.00;47.20;24.80;101196.00;;;;5046823;28;20174;-40
2022/09/01 02:04:03;;;;;;;2.23;2.00;;;23.90;47.30;24.80;101195.00;;;;5051545;28;20163;-40
2022/09/01 02:06:29;;;;;;;2.60;2.13;;;24.00;47.40;24.80;101199.00;;;;5056955;28;20162;-39
2022/09/01 02:08:57;;;;;;;2.00;1.90;;;24.00;47.50;24.80;101191.00;;;;5041188;28;20290;-39
2022/09/01 02:11:24;;;;;;;2.67;2.00;;;24.00;47.40;24.80;101192.00;;;;5055799;28;20741;-40
2022/09/01 02:13:55;;;;;;;2.30;2.10;;;24.00;47.50;24.80;101194.00;;;;5050897;28;20182;-40
2022/09/01 02:16:21;;;;;;;2.17;2.07;;;24.00;47.60;24.80;101196.00;;;;5051370;28;20189;-40
2022/09/01 02:18:47;;;;;;;2.00;1.90;;;24.00;47.60;24.70;101196.00;;;;5049496;28;20853;-39
2022/09/01 02:21:18;;;;;;;2.30;2.10;;;24.00;47.60;24.70;101199.00;;;;5050981;28;20163;-40
2022/09/01 02:23:59;;;;;;;2.10;1.97;;;24.00;47.60;24.70;101200.00;;;;5050817;28;20155;-40
2022/09/01 02:26:41;;;;;;;2.00;1.90;;;24.00;47.40;24.70;101201.00;;;;5050947;28;20174;-41
2022/09/01 02:29:16;;;;;;;2.93;2.00;;;23.90;47.30;24.70;101203.00;;;;5050389;28;20201;-39
2022/09/01 02:31:42;;;;;;;2.03;1.83;;;24.00;47.40;24.70;101197.00;;;;5050443;28;20253;-38
2022/09/01 02:34:09;;;;;;;2.30;2.10;;;23.90;47.20;24.70;101191.00;;;;5050578;28;20261;-40
2022/09/01 02:36:36;;;;;;;1.90;1.80;;;23.90;47.30;24.70;101200.00;;;;5051093;28;20602;-40
2022/09/01 02:39:02;;;;;;;2.30;2.10;;;23.90;47.30;24.70;101194.00;;;;5050333;28;20209;-41
2022/09/01 02:41:28;;;;;;;2.35;2.15;;;23.90;47.40;24.70;101198.00;;;;5049335;28;20228;-40
2022/09/01 02:43:54;;;;;;;2.00;1.90;;;23.90;47.40;24.70;101191.00;;;;5050277;28;20190;-40
2022/09/01 02:46:22;;;;;;;2.10;2.00;;;23.90;47.40;24.70;101190.00;;;;5050093;28;20651;-40
2022/09/01 02:48:50;;;;;;;2.10;2.00;;;23.90;47.30;24.60;101194.00;;;;5049780;28;20865;-40
2022/09/01 02:51:18;;;;;;;2.37;2.00;;;23.90;47.30;24.60;101191.00;;;;5050300;28;20536;-40
2022/09/01 02:53:45;;;;;;;2.20;2.00;;;23.80;47.20;24.60;101190.00;;;;5050238;28;20829;-39
2022/09/01 02:56:13;;;;;;;2.73;2.10;;;23.80;47.80;24.60;101189.00;;;;5049999;28;20730;-41
2022/09/01 02:58:44;;;;;;;2.20;2.00;;;23.80;47.20;24.60;101189.00;;;;5050214;28;20190;-40
2022/09/01 03:01:28;;;;;;;2.53;1.90;;;23.70;47.30;24.50;101186.00;;;;5050173;28;20155;-40
2022/09/01 03:04:00;;;;;;;2.20;2.00;;;23.70;47.30;24.50;101188.00;;;;5050343;28;20172;-39
2022/09/01 03:06:26;;;;;;;2.13;1.93;;;23.70;47.40;24.50;101182.00;;;;5049951;28;20265;-40
2022/09/01 03:08:55;;;;;;;2.30;2.10;;;23.60;47.20;24.50;101178.00;;;;5052887;28;20175;-39
2022/09/01 03:11:23;;;;;;;2.20;2.00;;;23.70;47.30;24.50;101184.00;;;;5060423;28;20177;-39
2022/09/01 03:13:48;;;;;;;1.93;1.83;;;23.70;47.30;24.50;101184.00;;;;5055908;28;20236;-40
2022/09/01 03:16:15;;;;;;;2.00;1.90;;;23.70;47.30;24.50;101184.00;;;;5049968;28;20606;-39
2022/09/01 03:18:41;;;;;;;2.17;1.97;;;23.60;47.20;24.40;101183.00;;;;5049310;28;20709;-40
2022/09/01 03:21:08;;;;;;;2.23;2.00;;;23.60;47.20;24.40;101185.00;;;;5050645;28;20166;-41
2022/09/01 03:23:34;;;;;;;2.60;1.90;;;23.60;47.20;24.40;101186.00;;;;5060754;28;20223;-40
2022/09/01 03:26:00;;;;;;;2.07;1.80;;;23.50;47.30;24.40;101194.00;;;;5049594;28;20194;-40
2022/09/01 03:28:26;;;;;;;3.90;2.20;;;23.50;47.40;24.40;101193.00;;;;5049457;28;20224;-40
2022/09/01 03:30:53;;;;;;;2.20;2.00;;;23.50;47.50;24.40;101185.00;;;;5052358;28;20198;-39
2022/09/01 03:33:20;;;;;;;2.93;2.07;;;23.40;48.10;24.40;101186.00;;;;5062463;28;20173;-40
2022/09/01 03:35:45;;;;;;;8.77;2.20;;;23.50;47.60;24.30;101196.00;;;;5069331;28;20208;-41
2022/09/01 03:38:11;;;;;;;3.77;2.20;;;23.50;47.80;24.30;101192.00;;;;5069012;28;20820;-39
2022/09/01 03:40:38;;;;;;;2.73;2.00;;;23.50;47.60;24.30;101181.00;;;;5068856;28;20194;-40
2022/09/01 03:43:11;;;;;;;2.10;2.00;;;23.60;47.60;24.30;101186.00;;;;5068300;28;20172;-42
2022/09/01 03:45:37;;;;;;;4.03;2.00;;;23.60;47.60;24.30;101174.00;;;;5069328;28;20162;-39
2022/09/01 03:48:08;;;;;;;2.20;2.10;;;23.60;47.60;24.30;101175.00;;;;5069250;28;20173;-39
2022/09/01 03:50:39;;;;;;;2.30;2.10;;;23.50;47.60;24.30;101193.00;;;;5069245;28;20201;-41
2022/09/01 03:53:05;;;;;;;4.00;2.27;;;23.50;47.60;24.30;101176.00;;;;5068719;28;20341;-40
2022/09/01 03:55:33;;;;;;;2.23;2.00;;;23.40;47.60;24.30;101188.00;;;;5069753;28;20536;-39
2022/09/01 03:58:05;;;;;;;2.30;2.10;;;23.40;47.60;24.20;101181.00;;;;5069886;28;20564;-38
2022/09/01 04:00:38;;;;;;;2.37;2.00;;;23.40;47.60;24.20;101180.00;;;;5069613;28;20217;-39
2022/09/01 04:03:06;;;;;;;2.43;1.97;;;23.40;47.60;24.20;101179.00;;;;5069096;28;20248;-39
2022/09/01 04:05:33;;;;;;;2.20;2.00;;;23.40;47.60;24.30;101139.00;;;;5068709;28;20248;-39
2022/09/01 04:08:02;;;;;;;2.30;1.97;;;23.40;47.60;24.20;101174.00;;;;5068838;28;20531;-39
2022/09/01 04:10:30;;;;;;;3.00;2.10;;;23.40;47.70;24.20;101178.00;;;;5068750;28;20220;-39
2022/09/01 04:12:58;;;;;;;2.50;2.03;;;23.30;47.60;24.20;101175.00;;;;5068736;28;20170;-40
2022/09/01 04:15:24;;;;;;;2.27;2.10;;;23.30;47.70;24.20;101179.00;;;;5067168;28;20179;-39
2022/09/01 04:18:08;;;;;;;2.80;2.20;;;23.40;47.80;24.20;101178.00;;;;5068018;28;20297;-39
2022/09/01 04:20:47;;;;;;;2.80;1.93;;;23.40;48.00;24.20;101170.00;;;;5061127;28;20195;-39
2022/09/01 04:23:32;;;;;;;3.00;2.10;;;23.30;48.00;24.20;101176.00;;;;5054002;28;20555;-39
2022/09/01 04:26:12;;;;;;;2.77;1.80;;;23.30;48.20;24.10;101175.00;;;;5048054;28;20158;-38
2022/09/01 04:28:44;;;;;;;2.83;2.00;;;23.20;48.30;24.10;101184.00;;;;5048307;28;20154;-38
2022/09/01 04:31:17;;;;;;;3.47;2.10;;;23.20;48.40;24.10;101176.00;;;;5047719;28;20158;-39
2022/09/01 04:33:45;;;;;;;2.30;2.10;;;23.20;48.40;24.00;101180.00;;;;5047883;28;20316;-40
2022/09/01 04:36:31;;;;;;;4.47;2.00;;;23.10;49.00;24.00;101180.00;;;;5047597;28;20158;-39
2022/09/01 04:38:59;;;;;;;3.80;2.00;;;23.00;48.30;24.00;101173.00;;;;5047264;28;20190;-39
2022/09/01 04:41:29;;;;;;;2.87;2.00;;;23.00;48.40;23.90;101186.00;;;;5047917;28;20261;-39
2022/09/01 04:43:55;;;;;;;3.13;2.20;;;23.00;48.60;24.00;101182.00;;;;5047836;28;20178;-40
2022/09/01 04:46:22;;;;;;;2.17;1.90;;;23.00;48.70;23.90;101186.00;;;;5046621;28;20167;-40
2022/09/01 04:48:51;;;;;;;2.10;1.90;;;23.00;48.70;23.90;101014.00;;;;5047079;28;20163;-39
2022/09/01 04:51:19;;;;;;;2.33;2.00;;;23.00;48.70;23.90;101140.00;;;;5047484;28;20162;-40
2022/09/01 04:53:47;;;;;;;2.20;2.00;;;22.90;48.80;23.90;101175.00;;;;5045760;28;20206;-39
2022/09/01 04:56:18;;;;;;;2.10;1.90;;;22.90;48.80;23.90;101178.00;;;;5047548;28;20227;-41
2022/09/01 04:58:45;;;;;;;1.90;1.80;;;22.80;48.70;23.80;101173.00;;;;5047224;28;20202;-40
2022/09/01 05:01:24;;;;;;;2.33;1.97;;;22.90;48.90;23.80;101177.00;;;;5047057;28;20161;-40
2022/09/01 05:03:57;;;;;;;2.13;1.93;;;22.80;48.80;23.80;101183.00;;;;5049338;28;20182;-40
2022/09/01 05:06:23;;;;;;;3.20;2.10;;;22.80;48.80;23.70;101185.00;;;;5046961;28;20147;-38
2022/09/01 05:08:50;;;;;;;2.17;2.00;;;22.70;48.90;23.70;101173.00;;;;5047148;28;20182;-39
2022/09/01 05:11:16;;;;;;;2.20;2.00;;;22.70;49.00;23.70;101181.00;;;;5047554;28;20187;-39
2022/09/01 05:13:46;;;;;;;2.40;2.00;;;22.70;49.10;23.60;101181.00;;;;5059907;28;20170;-40
2022/09/01 05:16:18;;;;;;;2.27;2.00;;;22.60;49.10;23.60;101179.00;;;;5049977;28;20178;-39
2022/09/01 05:18:46;;;;;;;2.20;2.00;;;22.60;49.20;23.60;101176.00;;;;5047074;28;20198;-39
2022/09/01 05:21:15;;;;;;;2.00;1.90;;;22.50;49.30;23.50;101186.00;;;;5047560;28;20523;-39
2022/09/01 05:23:43;;;;;;;2.00;1.90;;;22.50;49.40;23.50;101184.00;;;;5045327;28;20189;-39
2022/09/01 05:26:21;;;;;;;2.73;2.03;;;22.50;49.40;23.50;101191.00;;;;5047411;28;20688;-40
2022/09/01 05:28:49;;;;;;;2.10;1.90;;;22.40;49.50;23.40;101191.00;;;;5047108;28;20165;-39
2022/09/01 05:31:18;;;;;;;2.67;2.00;;;22.40;49.60;23.40;101189.00;;;;5047178;28;20181;-39
2022/09/01 05:33:47;;;;;;;2.80;1.90;;;22.40;49.70;23.20;101186.00;;;;5047400;28;20175;-39
2022/09/01 05:36:14;;;;;;;2.00;1.90;;;22.40;49.60;23.40;101185.00;;;;5047132;28;20202;-38
2022/09/01 05:38:41;;;;;;;2.10;1.90;;;22.40;49.50;23.40;101166.00;;;;5047078;28;20247;-38
2022/09/01 05:41:08;;;;;;;5.27;2.10;;;22.50;49.50;23.40;101190.00;;;;5046870;28;20193;-38
2022/09/01 05:43:34;;;;;;;2.53;2.20;;;22.50;49.40;23.40;101192.00;;;;5045802;28;20540;-39
2022/09/01 05:46:02;;;;;;;3.13;1.90;;;22.40;49.40;23.40;101193.00;;;;5047199;28;20178;-39
2022/09/01 05:48:30;;;;;;;2.73;2.10;;;22.40;49.50;23.40;101193.00;;;;5046704;28;20727;-38
2022/09/01 05:50:57;;;;;;;4.93;2.00;;;22.40;49.50;23.40;101191.00;;;;5047044;28;20666;-39
2022/09/01 05:53:24;;;;;;;2.23;2.00;;;22.40;49.30;23.40;101199.00;;;;5047067;28;20179;-39
2022/09/01 05:55:55;;;;;;;2.60;1.97;;;22.50;49.10;23.50;101199.00;;;;5047136;28;20315;-39
2022/09/01 05:58:23;;;;;;;4.60;2.00;;;22.50;49.20;23.50;101194.00;;;;5046367;28;20273;-40
2022/09/01 06:00:50;;;;;;;2.83;1.90;;;22.60;49.10;23.20;101197.00;;;;5046936;28;20221;-39
2022/09/01 06:03:16;;;;;;;3.60;1.93;;;22.60;49.10;23.50;101203.00;;;;5048143;28;20196;-39
2022/09/01 06:05:46;;;;;;;2.10;1.90;;;22.60;49.00;23.50;101197.00;;;;5047338;28;20247;-39
2022/09/01 06:08:13;;;;;;;2.10;1.90;;;22.60;48.90;23.50;101200.00;;;;5048337;28;20190;-39
2022/09/01 06:10:40;;;;;;;4.70;1.80;;;22.60;48.90;23.50;101204.00;;;;5047739;28;20737;-39
2022/09/01 06:13:07;;;;;;;1.90;1.80;;;22.60;48.90;23.30;101195.00;;;;5048465;28;20182;-38
2022/09/01 06:15:37;;;;;;;2.10;1.90;;;22.60;48.80;23.50;101191.00;;;;5046819;28;20177;-40
2022/09/01 06:18:08;;;;;;;2.70;1.93;;;22.60;48.90;23.50;101198.00;;;;5046899;28;20198;-39
2022/09/01 06:20:34;;;;;;;2.60;2.00;;;22.60;49.10;23.50;101199.00;;;;5046256;28;20684;-39
2022/09/01 06:22:59;;;;;;;2.17;1.93;;;22.60;49.10;23.50;101190.00;;;;5045219;28;20178;-40
2022/09/01 06:25:29;;;;;;;2.40;1.87;;;22.60;49.30;23.50;101195.00;;;;5045085;28;20233;-41
2022/09/01 06:27:55;;;;;;;3.17;2.30;;;22.60;49.10;23.50;101193.00;;;;5060545;28;20206;-39
2022/09/01 06:30:21;;;;;;;3.50;1.90;;;22.70;49.10;23.50;101187.00;;;;5060158;28;20208;-39
2022/09/01 06:32:48;;;;;;;2.40;2.00;;;22.70;49.10;23.50;101195.00;;;;5046367;28;20174;-39
2022/09/01 06:35:16;;;;;;;3.33;2.00;;;22.70;49.10;23.40;101195.00;;;;5046277;28;20166;-39
2022/09/01 06:37:42;;;;;;;3.00;2.13;;;22.60;49.20;23.40;101190.00;;;;5045884;28;20275;-38
2022/09/01 06:40:15;;;;;;;1.90;1.80;;;22.60;49.30;23.50;101188.00;;;;5046771;28;20182;-39
2022/09/01 06:42:46;;;;;;;1.70;1.60;;;22.60;49.20;23.40;101187.00;;;;5045731;28;20177;-39
2022/09/01 06:45:13;;;;;;;1.80;1.70;;;22.60;49.30;23.40;101203.00;;;;5046699;28;20189;-40
2022/09/01 06:47:43;;;;;;;2.07;1.80;;;22.60;49.40;23.40;101196.00;;;;5046195;28;20173;-39
2022/09/01 06:50:14;;;;;;;2.10;1.90;;;22.60;49.40;23.40;101207.00;;;;5046369;28;20187;-39
2022/09/01 06:52:43;;;;;;;2.17;1.77;;;22.60;49.40;23.40;101195.00;;;;5046349;28;20177;-39
2022/09/01 06:55:13;;;;;;;2.00;1.80;;;22.60;49.40;23.30;101198.00;;;;5049048;28;20253;-40
2022/09/01 06:57:40;;;;;;;1.90;1.70;;;22.60;49.50;23.30;101200.00;;;;5049491;28;20224;-39
2022/09/01 07:00:19;;;;;;;2.00;1.80;;;22.60;49.40;23.30;101209.00;;;;5049706;28;20190;-39
2022/09/01 07:02:46;;;;;;;1.93;1.77;;;22.60;49.40;23.30;101202.00;;;;5049251;28;20155;-39
2022/09/01 07:05:16;;;;;;;1.73;1.63;;;22.60;49.50;23.30;101209.00;;;;5049220;28;20667;-39
2022/09/01 07:07:50;;;;;;;1.73;1.63;;;22.60;49.60;23.30;101205.00;;;;5049394;28;20167;-41
2022/09/01 07:10:21;;;;;;;1.77;1.67;;;22.50;49.50;23.30;101217.00;;;;5048188;28;20302;-39
2022/09/01 07:12:48;;;;;;;1.70;1.60;;;22.50;49.50;23.30;101210.00;;;;5050492;28;20155;-40
2022/09/01 07:15:16;;;;;;;2.10;1.90;;;22.50;49.50;23.30;101214.00;;;;5058758;28;20727;-40
2022/09/01 07:17:47;;;;;;;1.73;1.63;;;22.50;49.50;23.30;101214.00;;;;5049080;28;20224;-40
2022/09/01 07:20:14;;;;;;;2.13;1.70;;;22.50;49.70;23.30;101220.00;;;;5049466;28;20253;-40
2022/09/01 07:22:40;;;;;;;2.10;1.90;;;22.50;49.70;23.30;101215.00;;;;5049058;28;20166;-39
2022/09/01 07:25:07;;;;;;;1.80;1.70;;;22.50;49.70;23.30;101210.00;;;;5049044;28;20171;-40
2022/09/01 07:27:32;;;;;;;3.27;1.67;;;22.40;49.60;23.30;101212.00;;;;5051544;28;20166;-40
2022/09/01 07:29:59;;;;;;;2.70;1.97;;;22.40;49.80;23.30;101203.00;;;;5048875;28;20399;-39
2022/09/01 07:32:25;;;;;;;2.00;1.87;;;22.40;49.70;23.30;101213.00;;;;5049448;28;20213;-39
2022/09/01 07:34:51;;;;;;;1.90;1.80;;;22.40;49.70;23.30;101209.00;;;;5048499;28;20170;-39
2022/09/01 07:37:17;;;;;;;2.03;1.50;;;22.50;49.80;23.30;101210.00;;;;5048886;28;20615;-38
2022/09/01 07:39:45;;;;;;;2.53;1.70;;;22.50;49.70;23.30;101210.00;;;;5048771;28;20205;-39
2022/09/01 07:42:11;;;;;;;2.23;1.80;;;22.50;50.60;23.30;101209.00;;;;4992678;28;20173;-40
2022/09/01 07:44:37;;;;;;;5.13;2.00;;;22.50;49.90;23.30;101204.00;;;;5068116;28;20177;-39
2022/09/01 07:47:08;;;;;;;2.53;1.70;;;22.60;49.90;23.40;101213.00;;;;5068170;28;20666;-39
2022/09/01 07:49:36;;;;;;;2.33;2.10;;;22.60;49.80;23.40;101205.00;;;;5068662;28;20243;-37
2022/09/01 07:52:06;;;;;;;2.23;2.03;;;22.60;49.90;23.40;101193.00;;;;5068619;28;20183;-39
2022/09/01 07:54:33;;;;;;;2.50;1.63;;;22.70;49.80;23.40;101214.00;;;;5068239;28;20205;-39
2022/09/01 07:57:00;;;;;;;2.53;1.77;;;22.70;49.70;23.40;101204.00;;;;5068646;28;20849;-39
2022/09/01 07:59:27;;;;;;;2.13;1.80;;;22.60;49.70;23.40;101215.00;;;;5068499;28;20558;-39
2022/09/01 08:01:52;;;;;;;1.97;1.80;;;22.60;49.40;23.40;101208.00;;;;5069194;28;20650;-39
2022/09/01 08:04:21;;;;;;;1.80;1.70;;;22.70;49.30;23.40;101207.00;;;;5085548;28;20165;-40
2022/09/01 08:06:47;;;;;;;2.63;1.80;;;22.70;49.10;23.40;101213.00;;;;5087430;28;20173;-40
2022/09/01 08:09:13;;;;;;;1.70;1.60;;;22.70;49.10;23.40;101211.00;;;;5087636;28;20207;-40
2022/09/01 08:11:39;;;;;;;2.57;1.77;;;22.60;48.70;23.40;101205.00;;;;5087887;28;20715;-40
2022/09/01 08:14:05;;;;;;;2.07;1.80;;;22.70;48.30;23.40;101212.00;;;;5087832;28;20165;-39
2022/09/01 08:16:31;;;;;;;1.80;1.70;;;22.60;47.90;23.40;101215.00;;;;5088104;28;20165;-39
2022/09/01 08:18:58;;;;;;;2.10;1.90;;;22.70;48.00;23.40;101209.00;;;;5087810;28;20284;-39
2022/09/01 08:21:24;;;;;;;2.10;1.90;;;22.70;47.50;23.40;101209.00;;;;5088065;28;20293;-39
2022/09/01 08:23:51;;;;;;;1.83;1.73;;;22.70;47.80;23.40;101204.00;;;;5085021;28;20206;-40
2022/09/01 08:26:18;;;;;;;1.77;1.67;;;22.60;47.90;23.40;101208.00;;;;5067986;28;20189;-39
2022/09/01 08:28:44;;;;;;;2.43;1.70;;;22.70;47.90;23.40;101215.00;;;;5068032;28;20208;-39
2022/09/01 08:31:12;;;;;;;2.47;1.70;;;22.70;47.60;23.40;101203.00;;;;5055377;28;20727;-38
2022/09/01 08:33:39;;;;;;;1.70;1.60;;;22.70;47.50;23.40;101203.00;;;;5047349;28;20174;-39
2022/09/01 08:36:07;;;;;;;1.70;1.60;;;22.70;47.60;23.40;101205.00;;;;5047949;28;20194;-38
2022/09/01 08:38:33;;;;;;;1.90;1.70;;;22.70;47.80;23.40;101207.00;;;;5049856;28;20256;-39
2022/09/01 08:40:59;;;;;;;1.70;1.60;;;22.70;47.20;23.40;101199.00;;;;5047724;28;20194;-39
2022/09/01 08:43:49;;;;;;;1.70;1.60;;;22.70;47.20;23.50;101207.00;;;;5046498;28;20174;-39
2022/09/01 08:46:34;;;;;;;1.70;1.60;;;22.70;47.40;23.40;101203.00;;;;5047424;28;20174;-39
2022/09/01 08:49:06;;;;;;;3.10;1.60;;;22.70;47.00;23.50;101202.00;;;;5045998;28;20853;-39
2022/09/01 08:51:38;;;;;;;1.80;1.70;;;22.70;46.80;23.50;101196.00;;;;5055688;28;20274;-39
2022/09/01 08:54:41;;;;;;;1.90;1.77;;;22.80;46.60;23.50;101198.00;;;;5045823;28;20166;-39
2022/09/01 08:57:33;;;;;;;1.70;1.60;;;22.70;45.30;23.50;101199.00;;;;5047359;28;20632;-39
2022/09/01 08:59:59;;;;;;;1.90;1.50;;;22.70;44.40;23.50;101200.00;;;;5045816;28;20190;-40
2022/09/01 09:02:54;;;;;;;1.60;1.50;;;22.70;44.10;23.50;101202.00;;;;5046302;28;20549;-41
2022/09/01 09:05:38;;;;;;;1.80;1.70;;;22.70;44.80;23.50;101196.00;;;;5045673;28;20170;-38
2022/09/01 09:08:45;;;;;;;2.20;1.60;;;22.80;44.60;23.50;101186.00;;;;5046048;28;20170;-40
2022/09/01 09:11:32;;;;;;;1.90;1.70;;;22.70;43.10;23.50;101192.00;;;;5037347;28;20212;-39
2022/09/01 09:14:40;;;;;;;2.67;1.80;;;22.80;43.90;23.50;101193.00;;;;5051126;28;20642;-39
2022/09/01 09:17:06;;;;;;;2.63;1.80;;;22.70;42.60;23.50;101192.00;;;;4989709;28;20200;-40
2022/09/01 09:19:40;;;;;;;1.90;1.70;;;22.80;43.10;23.50;101180.00;;;;5060624;28;20626;-41
2022/09/01 09:22:15;;;;;;;4.63;1.83;;;22.80;43.90;23.50;101183.00;;;;5050946;28;20525;-39
2022/09/01 09:25:13;;;;;;;6.47;2.07;;;22.80;43.60;23.50;101177.00;;;;5068430;28;20306;-39
2022/09/01 09:27:42;;;;;;;1.90;1.67;;;22.80;44.30;23.50;101188.00;;;;5076068;28;20162;-40
2022/09/01 09:30:23;;;;;;;2.53;1.80;;;22.80;44.30;23.60;101183.00;;;;5075153;28;20200;-39
2022/09/01 09:33:09;;;;;;;2.57;1.80;;;22.80;44.40;23.60;101185.00;;;;5067072;28;20158;-39
2022/09/01 09:35:38;;;;;;;6.53;2.10;;;22.80;44.50;23.60;101111.00;;;;5068390;28;20880;-39
2022/09/01 09:38:27;;;;;;;3.77;2.10;;;22.90;45.00;23.60;101173.00;;;;5068041;28;20209;-41
2022/09/01 09:41:01;;;;;;;1.97;1.60;;;22.90;44.30;23.60;101172.00;;;;5067903;28;20189;-40
2022/09/01 09:43:29;;;;;;;2.00;1.70;;;22.90;43.80;23.60;101174.00;;;;5067354;28;20149;-39
2022/09/01 09:46:20;;;;;;;3.20;1.70;;;22.90;43.00;23.70;101174.00;;;;5049435;28;20712;-39
2022/09/01 09:48:45;;;;;;;2.73;1.73;;;23.00;42.30;23.60;101166.00;;;;5067205;28;20658;-39
2022/09/01 09:51:19;;;;;;;1.80;1.70;;;23.00;42.70;23.70;101161.00;;;;5068046;28;20215;-39
2022/09/01 09:53:44;;;;;;;1.70;1.60;;;23.00;42.00;23.70;101165.00;;;;5052748;28;20158;-38
2022/09/01 09:56:25;;;;;;;2.97;1.90;;;22.90;43.40;23.70;101151.00;;;;5072255;28;20674;-40
2022/09/01 09:58:51;;;;;;;1.90;1.70;;;23.00;41.40;23.70;101156.00;;;;5050631;28;20192;-40
2022/09/01 10:01:24;;;;;;;1.97;1.77;;;23.10;41.60;23.70;101163.00;;;;5066674;28;20261;-41
2022/09/01 10:03:55;;;;;;;2.00;1.80;;;23.10;42.50;23.70;101145.00;;;;5067347;28;20683;-40
2022/09/01 10:06:32;;;;;;;1.87;1.63;;;23.10;42.30;23.70;101144.00;;;;5067076;28;20774;-40
2022/09/01 10:09:00;;;;;;;2.07;1.87;;;23.10;42.30;23.70;101148.00;;;;5067921;28;20188;-40
2022/09/01 10:11:38;;;;;;;2.33;1.70;;;23.10;42.10;23.80;101138.00;;;;5068701;28;20170;-40
2022/09/01 10:14:18;;;;;;;2.07;1.90;;;23.10;43.00;23.80;101131.00;;;;5071103;28;20168;-46
2022/09/01 10:16:44;;;;;;;2.67;1.60;;;23.10;42.60;23.80;101139.00;;;;4896294;28;22146;-39
2022/09/01 10:19:11;;;;;;;6.60;2.20;;;23.10;43.40;23.80;101139.00;;;;5087108;28;20209;-40
2022/09/01 10:21:39;;;;;;;4.20;1.90;;;23.20;41.90;23.90;101143.00;;;;5070355;28;20229;-40
2022/09/01 10:24:30;;;;;;;3.40;1.90;;;23.30;42.50;23.90;101134.00;;;;5063491;28;20170;-39
2022/09/01 10:26:59;;;;;;;2.90;2.00;;;23.30;43.70;23.90;101140.00;;;;5047489;28;20193;-40
2022/09/01 10:29:34;;;;;;;3.03;1.70;;;23.30;41.70;24.00;101132.00;;;;5055421;28;20271;-39
2022/09/01 10:31:59;;;;;;;3.40;2.30;;;23.40;42.50;24.00;101129.00;;;;5049399;28;20205;-40
2022/09/01 10:34:25;;;;;;;3.27;2.40;;;23.40;43.70;24.00;101143.00;;;;5049697;28;20655;-39
2022/09/01 10:36:51;;;;;;;2.57;2.10;;;23.50;43.90;24.00;101133.00;;;;5049979;28;20258;-39
2022/09/01 10:39:17;;;;;;;5.00;2.10;;;23.50;42.70;23.80;101145.00;;;;5060383;28;20555;-41
2022/09/01 10:42:05;;;;;;;4.47;2.20;;;23.50;42.60;24.10;101132.00;;;;5071034;28;20184;-40
2022/09/01 10:44:37;;;;;;;3.33;1.90;;;23.50;42.80;24.10;101127.00;;;;5055835;28;20556;-40
2022/09/01 10:47:10;;;;;;;2.87;2.00;;;23.60;43.20;24.10;101125.00;;;;5069777;28;20249;-41
2022/09/01 10:49:45;;;;;;;3.63;1.97;;;23.60;41.90;24.10;101127.00;;;;5069879;28;20227;-40
2022/09/01 10:52:35;;;;;;;2.70;2.03;;;23.60;42.70;24.20;101132.00;;;;5070690;28;20181;-44
2022/09/01 10:55:02;;;;;;;2.67;2.00;;;23.70;43.20;24.20;101126.00;;;;5056335;28;20193;-40
2022/09/01 10:57:41;;;;;;;1.90;1.80;;;23.70;42.50;24.20;101127.00;;;;5054286;28;20328;-39
2022/09/01 11:00:19;;;;;;;2.50;2.30;;;23.70;42.10;24.20;101119.00;;;;5089431;28;20263;-38
2022/09/01 11:03:13;;;;;;;3.30;3.00;;;23.80;41.90;24.30;101120.00;;;;5090985;28;20256;-40
2022/09/01 11:06:06;;;;;;;2.80;2.60;;;23.80;41.20;24.30;101120.00;;;;5091115;28;20181;-40